Avon, Utah
Current Conditions -  °F | °C
As of 12:15 PM on Saturday 20 Dec 2014 (Local Time) from KBMC Reporting Station
Overcast Overcast  
Wind Chill: 39°   Ceiling: 1200
Heat Index: 39°   Visibility: 5mi
Dew Point: 35°   Wind: 0mph
Humidity: 87%   Direction: NA
Pressure: 30.1"   Gusts: NA
Location:  41.5397°N, 111.856°W
Report Text: KBMC 201915Z AUTO 00000KT 5SM OVC012 04/02 A3010 RMK AO1 T00370018
Loading
Personal Weather Stations






























Interactive Weather Map New forecast layout! Learn more

10-Day Weather Forecast

Advertisements
Track Severe Weather on mobile